createdAt,value
2017-05-18T00:01:10.402Z,1011.86
2017-05-18T00:02:10.325Z,1011.89
2017-05-18T00:03:10.264Z,1011.82
2017-05-18T00:04:10.202Z,1011.85
2017-05-18T00:05:10.140Z,1011.84
2017-05-18T00:06:10.079Z,1011.83
2017-05-18T00:07:10.017Z,1011.78
2017-05-18T00:08:09.956Z,1011.82
2017-05-18T00:09:09.894Z,1011.79
2017-05-18T00:10:09.833Z,1011.73
2017-05-18T00:11:09.771Z,1011.75
2017-05-18T00:12:09.709Z,1011.68
2017-05-18T00:13:09.694Z,1011.69
2017-05-18T00:14:09.587Z,1011.68
2017-05-18T00:15:09.525Z,1011.7
2017-05-18T00:16:09.463Z,1011.67
2017-05-18T00:17:09.403Z,1011.7
2017-05-18T00:18:09.340Z,1011.62
2017-05-18T00:19:09.278Z,1011.68
2017-05-18T00:20:09.217Z,1011.67
2017-05-18T00:21:09.154Z,1011.63
2017-05-18T00:22:09.093Z,1011.64
2017-05-18T00:23:09.035Z,1011.6
2017-05-18T00:24:08.971Z,1011.58
2017-05-18T00:25:08.911Z,1011.62
2017-05-18T00:26:08.847Z,1011.59
2017-05-18T00:27:08.787Z,1011.6
2017-05-18T00:28:08.725Z,1011.54
2017-05-18T00:29:08.663Z,1011.59
2017-05-18T00:30:08.600Z,1011.51
2017-05-18T00:31:08.540Z,1011.55
2017-05-18T00:32:08.477Z,1011.53
2017-05-18T00:33:08.416Z,1011.5
2017-05-18T00:34:08.355Z,1011.48
2017-05-18T00:35:08.293Z,1011.52
2017-05-18T00:36:08.234Z,1011.54
2017-05-18T00:37:08.170Z,1011.48
2017-05-18T00:38:08.108Z,1011.47
2017-05-18T00:39:08.049Z,1011.52
2017-05-18T00:40:07.987Z,1011.51
2017-05-18T00:41:07.927Z,1011.5
2017-05-18T00:42:07.863Z,1011.47
2017-05-18T00:43:07.803Z,1011.45
2017-05-18T00:44:07.741Z,1011.48
2017-05-18T00:45:07.677Z,1011.44
2017-05-18T00:46:07.617Z,1011.41
2017-05-18T00:47:07.556Z,1011.45
2017-05-18T00:48:07.495Z,1011.42
2017-05-18T00:49:07.432Z,1011.41
2017-05-18T00:50:07.371Z,1011.42
2017-05-18T00:51:07.310Z,1011.42
2017-05-18T00:52:07.248Z,1011.38
2017-05-18T00:53:07.186Z,1011.36
2017-05-18T00:54:07.125Z,1011.36
2017-05-18T00:55:07.063Z,1011.35
2017-05-18T00:56:07.002Z,1011.35
2017-05-18T00:57:06.940Z,1011.32
2017-05-18T00:58:06.879Z,1011.32
2017-05-18T00:59:06.816Z,1011.31
2017-05-18T01:00:06.755Z,1011.25
2017-05-18T01:01:06.693Z,1011.26
2017-05-18T01:02:06.632Z,1011.29
2017-05-18T01:03:06.570Z,1011.29
2017-05-18T01:04:06.519Z,1011.27
2017-05-18T01:05:06.448Z,1011.27
2017-05-18T01:06:06.385Z,1011.26
2017-05-18T01:07:06.325Z,1011.27
2017-05-18T01:08:06.263Z,1011.25
2017-05-18T01:09:06.202Z,1011.25
2017-05-18T01:10:06.140Z,1011.24
2017-05-18T01:11:06.078Z,1011.22
2017-05-18T01:12:06.017Z,1011.27
2017-05-18T01:13:05.955Z,1011.22
2017-05-18T01:14:05.893Z,1011.2
2017-05-18T01:15:05.833Z,1011.21
2017-05-18T01:16:05.770Z,1011.22
2017-05-18T01:17:05.709Z,1011.18
2017-05-18T01:18:05.647Z,1011.18
2017-05-18T01:19:05.585Z,1011.18
2017-05-18T01:20:05.524Z,1011.16
2017-05-18T01:21:05.465Z,1011.15
2017-05-18T01:22:05.401Z,1011.13
2017-05-18T01:23:05.340Z,1011.13
2017-05-18T01:24:05.279Z,1011.16
2017-05-18T01:25:05.215Z,1011.16
2017-05-18T01:26:05.157Z,1011.15
2017-05-18T01:27:05.094Z,1011.15
2017-05-18T01:28:05.031Z,1011.17
2017-05-18T01:29:04.970Z,1011.12
2017-05-18T01:30:04.909Z,1011.14
2017-05-18T01:31:04.847Z,1011.11
2017-05-18T01:32:04.784Z,1011.12
2017-05-18T01:33:04.724Z,1011.08
2017-05-18T01:34:04.663Z,1011.08
2017-05-18T01:35:04.601Z,1011.08
2017-05-18T01:36:04.540Z,1011.04
2017-05-18T01:37:04.477Z,1011.08
2017-05-18T01:38:04.417Z,1011.02
2017-05-18T01:39:04.355Z,1011.06
2017-05-18T01:40:04.293Z,1011.1
2017-05-18T01:41:04.232Z,1011.05
2017-05-18T01:42:04.172Z,1011.04
2017-05-18T01:43:04.116Z,1011.02
2017-05-18T01:44:04.049Z,1011.03
2017-05-18T01:45:03.985Z,1011.02
2017-05-18T01:46:03.924Z,1011
2017-05-18T01:47:03.914Z,1010.98
2017-05-18T01:48:03.804Z,1011.03
2017-05-18T01:49:03.740Z,1011.02
2017-05-18T01:50:03.677Z,1011.05
2017-05-18T01:51:03.616Z,1010.97
2017-05-18T01:52:03.557Z,1010.98
2017-05-18T01:53:03.492Z,1010.93
2017-05-18T01:54:03.432Z,1010.97
2017-05-18T01:55:03.384Z,1010.92
2017-05-18T01:56:03.309Z,1010.95
2017-05-18T01:57:03.247Z,1010.95
2017-05-18T01:58:03.202Z,1010.87
2017-05-18T01:59:03.135Z,1010.95
2017-05-18T02:00:03.076Z,1010.9
2017-05-18T02:01:03.016Z,1010.88
2017-05-18T02:02:02.939Z,1010.95
2017-05-18T02:03:02.883Z,1010.91
2017-05-18T02:04:02.817Z,1010.91
2017-05-18T02:05:02.755Z,1010.93
2017-05-18T02:06:02.693Z,1010.9
2017-05-18T02:07:02.632Z,1010.87
2017-05-18T02:08:02.569Z,1010.89
2017-05-18T02:09:02.509Z,1010.87
2017-05-18T02:10:02.447Z,1010.89
2017-05-18T02:11:02.385Z,1010.86
2017-05-18T02:12:02.324Z,1010.9
2017-05-18T02:13:02.261Z,1010.86
2017-05-18T02:14:02.201Z,1010.83
2017-05-18T02:15:02.139Z,1010.83
2017-05-18T02:16:02.077Z,1010.87
2017-05-18T02:17:02.016Z,1010.87
2017-05-18T02:18:01.955Z,1010.81
2017-05-18T02:19:01.892Z,1010.81
2017-05-18T02:20:01.831Z,1010.8
2017-05-18T02:21:01.769Z,1010.82
2017-05-18T02:22:01.709Z,1010.79
2017-05-18T02:23:01.645Z,1010.81
2017-05-18T02:24:01.585Z,1010.81
2017-05-18T02:25:01.524Z,1010.8
2017-05-18T02:26:01.462Z,1010.8
2017-05-18T02:27:01.400Z,1010.73
2017-05-18T02:28:01.338Z,1010.77
2017-05-18T02:29:01.277Z,1010.76
2017-05-18T02:30:01.229Z,1010.76
2017-05-18T02:31:01.154Z,1010.77
2017-05-18T02:32:01.092Z,1010.73
2017-05-18T02:33:01.031Z,1010.77
2017-05-18T02:34:00.969Z,1010.73
2017-05-18T02:35:00.908Z,1010.73
2017-05-18T02:36:00.845Z,1010.68
2017-05-18T02:37:00.785Z,1010.71
2017-05-18T02:38:00.722Z,1010.7
2017-05-18T02:39:00.661Z,1010.71
2017-05-18T02:40:00.599Z,1010.66
2017-05-18T02:41:00.538Z,1010.66
2017-05-18T02:42:00.476Z,1010.68
2017-05-18T02:43:00.414Z,1010.69
2017-05-18T02:44:00.354Z,1010.68
2017-05-18T02:45:00.291Z,1010.68
2017-05-18T02:46:00.230Z,1010.67
2017-05-18T02:47:00.170Z,1010.63
2017-05-18T02:48:00.107Z,1010.6
2017-05-18T02:49:00.045Z,1010.64
2017-05-18T02:49:59.984Z,1010.62
2017-05-18T02:50:59.922Z,1010.61
2017-05-18T02:51:59.860Z,1010.62
2017-05-18T02:52:59.798Z,1010.63
2017-05-18T02:53:59.736Z,1010.66
2017-05-18T02:54:59.675Z,1010.6
2017-05-18T02:55:59.613Z,1010.6
2017-05-18T02:56:59.552Z,1010.65
2017-05-18T02:57:59.490Z,1010.62
2017-05-18T02:58:59.429Z,1010.6
2017-05-18T02:59:59.367Z,1010.6
2017-05-18T03:00:59.305Z,1010.58
2017-05-18T03:01:59.244Z,1010.6
2017-05-18T03:02:59.182Z,1010.59
2017-05-18T03:03:59.122Z,1010.61
2017-05-18T03:04:59.061Z,1010.59
2017-05-18T03:05:58.998Z,1010.57
2017-05-18T03:06:58.935Z,1010.59
2017-05-18T03:07:58.874Z,1010.58
2017-05-18T03:08:58.813Z,1010.59
2017-05-18T03:09:58.753Z,1010.58
2017-05-18T03:10:58.692Z,1010.57
2017-05-18T03:11:58.632Z,1010.54
2017-05-18T03:12:58.568Z,1010.55
2017-05-18T03:13:58.505Z,1010.55
2017-05-18T03:14:58.444Z,1010.57
2017-05-18T03:15:58.382Z,1010.54
2017-05-18T03:16:58.322Z,1010.53
2017-05-18T03:17:58.261Z,1010.52
2017-05-18T03:18:58.200Z,1010.58
2017-05-18T03:19:58.143Z,1010.54
2017-05-18T03:20:58.075Z,1010.48
2017-05-18T03:21:58.013Z,1010.54
2017-05-18T03:22:57.952Z,1010.5
2017-05-18T03:23:57.890Z,1010.48
2017-05-18T03:24:57.828Z,1010.47
2017-05-18T03:25:57.766Z,1010.46
2017-05-18T03:26:57.705Z,1010.48
2017-05-18T03:27:57.643Z,1010.44
2017-05-18T03:28:57.581Z,1010.44
2017-05-18T03:29:57.521Z,1010.44
2017-05-18T03:30:57.459Z,1010.41
2017-05-18T03:31:57.396Z,1010.45
2017-05-18T03:32:57.335Z,1010.4
2017-05-18T03:33:57.274Z,1010.42
2017-05-18T03:34:57.212Z,1010.41
2017-05-18T03:35:57.150Z,1010.39
2017-05-18T03:36:57.088Z,1010.37
2017-05-18T03:37:57.027Z,1010.37
2017-05-18T03:38:56.966Z,1010.35
2017-05-18T03:39:56.903Z,1010.34
2017-05-18T03:40:56.841Z,1010.37
2017-05-18T03:41:56.781Z,1010.34
2017-05-18T03:42:56.722Z,1010.34
2017-05-18T03:43:56.656Z,1010.33
2017-05-18T03:44:56.595Z,1010.34
2017-05-18T03:45:56.533Z,1010.32
2017-05-18T03:46:56.471Z,1010.31
2017-05-18T03:47:56.411Z,1010.31
2017-05-18T03:48:56.349Z,1010.32
2017-05-18T03:49:56.288Z,1010.32
2017-05-18T03:50:56.224Z,1010.32
2017-05-18T03:51:56.164Z,1010.31
2017-05-18T03:52:56.102Z,1010.31
2017-05-18T03:53:56.039Z,1010.32
2017-05-18T03:54:55.978Z,1010.32
2017-05-18T03:55:55.917Z,1010.31
2017-05-18T03:56:55.855Z,1010.33
2017-05-18T03:57:55.792Z,1010.31
2017-05-18T03:58:55.731Z,1010.31
2017-05-18T03:59:55.668Z,1010.27
2017-05-18T04:00:55.609Z,1010.25
2017-05-18T04:01:55.546Z,1010.23
2017-05-18T04:02:55.484Z,1010.24
2017-05-18T04:03:55.423Z,1010.23
2017-05-18T04:04:55.361Z,1010.31
2017-05-18T04:05:55.299Z,1010.27
2017-05-18T04:06:55.238Z,1010.21
2017-05-18T04:07:55.176Z,1010.23
2017-05-18T04:08:55.116Z,1010.21
2017-05-18T04:09:55.053Z,1010.2
2017-05-18T04:10:54.992Z,1010.18
2017-05-18T04:11:54.930Z,1010.19
2017-05-18T04:12:54.868Z,1010.19
2017-05-18T04:13:54.807Z,1010.2
2017-05-18T04:14:54.744Z,1010.18
2017-05-18T04:15:54.682Z,1010.15
2017-05-18T04:16:54.630Z,1010.13
2017-05-18T04:17:54.559Z,1010.1
2017-05-18T04:18:54.501Z,1010.08
2017-05-18T04:19:54.435Z,1010.08
2017-05-18T04:20:54.374Z,1010.13
2017-05-18T04:21:54.312Z,1010.12
2017-05-18T04:22:54.254Z,1010.05
2017-05-18T04:23:54.189Z,1010.11
2017-05-18T04:24:54.128Z,1010.13
2017-05-18T04:25:54.066Z,1010.07
2017-05-18T04:26:54.004Z,1010.05
2017-05-18T04:27:53.942Z,1010.09
2017-05-18T04:28:53.883Z,1010.04
2017-05-18T04:29:53.819Z,1010.08
2017-05-18T04:30:53.756Z,1010.05
2017-05-18T04:31:53.695Z,1010.03
2017-05-18T04:32:53.633Z,1010.01
2017-05-18T04:33:53.572Z,1010.04
2017-05-18T04:34:53.510Z,1009.99
2017-05-18T04:35:53.448Z,1010.06
2017-05-18T04:36:53.387Z,1010.03
2017-05-18T04:37:53.324Z,1010
2017-05-18T04:38:53.263Z,1010.01
2017-05-18T04:39:53.202Z,1010
2017-05-18T04:40:53.140Z,1010.01
2017-05-18T04:41:53.077Z,1009.97
2017-05-18T04:42:53.015Z,1010.01
2017-05-18T04:43:52.955Z,1010.04
2017-05-18T04:44:52.892Z,1010.02
2017-05-18T04:45:52.831Z,1009.97
2017-05-18T04:46:52.768Z,1009.96
2017-05-18T04:47:52.708Z,1009.96
2017-05-18T04:48:52.646Z,1009.94
2017-05-18T04:49:52.584Z,1009.95
2017-05-18T04:50:52.523Z,1010.01
2017-05-18T04:51:52.462Z,1009.98
2017-05-18T04:52:52.400Z,1010.01
2017-05-18T04:53:52.341Z,1009.99
2017-05-18T04:54:52.278Z,1010.05
2017-05-18T04:55:52.214Z,1009.97
2017-05-18T04:56:52.152Z,1009.99
2017-05-18T04:57:52.091Z,1009.99
2017-05-18T04:58:52.030Z,1009.95
2017-05-18T04:59:51.966Z,1009.97
2017-05-18T05:00:51.906Z,1010.02
2017-05-18T05:01:51.844Z,1010.01
2017-05-18T05:02:51.782Z,1010.01
2017-05-18T05:03:51.720Z,1009.97
2017-05-18T05:04:51.658Z,1009.97
2017-05-18T05:05:51.597Z,1009.96
2017-05-18T05:06:51.535Z,1009.94
2017-05-18T05:07:51.473Z,1009.99
2017-05-18T05:08:51.411Z,1009.96
2017-05-18T05:09:51.351Z,1009.98
2017-05-18T05:10:51.287Z,1009.91
2017-05-18T05:11:51.226Z,1009.9
2017-05-18T05:12:51.165Z,1009.88
2017-05-18T05:13:51.103Z,1009.89
2017-05-18T05:14:51.040Z,1009.9
2017-05-18T05:15:50.980Z,1009.87
2017-05-18T05:16:50.917Z,1009.86
2017-05-18T05:17:50.854Z,1009.88
2017-05-18T05:18:50.793Z,1009.87
2017-05-18T05:19:50.732Z,1009.93
2017-05-18T05:20:50.670Z,1009.9
2017-05-18T05:21:50.608Z,1009.86
2017-05-18T05:22:50.547Z,1009.89
2017-05-18T05:23:50.485Z,1009.84
2017-05-18T05:24:50.425Z,1009.92
2017-05-18T05:25:50.361Z,1009.9
2017-05-18T05:26:50.300Z,1009.89
2017-05-18T05:27:50.239Z,1009.88
2017-05-18T05:28:50.176Z,1009.93
2017-05-18T05:29:50.113Z,1009.87
2017-05-18T05:30:50.052Z,1009.86
2017-05-18T05:31:49.992Z,1009.91
2017-05-18T05:32:49.930Z,1009.9
2017-05-18T05:33:49.867Z,1009.93
2017-05-18T05:34:49.805Z,1009.91
2017-05-18T05:35:49.744Z,1009.91
2017-05-18T05:36:49.682Z,1009.91
2017-05-18T05:37:49.619Z,1009.88
2017-05-18T05:38:49.557Z,1009.9
2017-05-18T05:39:49.496Z,1009.89
2017-05-18T05:40:49.436Z,1009.86
2017-05-18T05:41:49.373Z,1009.9
2017-05-18T05:42:49.312Z,1009.92
2017-05-18T05:43:49.249Z,1009.88
2017-05-18T05:44:49.188Z,1009.87
2017-05-18T05:45:49.126Z,1009.87
2017-05-18T05:46:49.065Z,1009.91
2017-05-18T05:47:49.002Z,1009.86
2017-05-18T05:48:48.942Z,1009.89
2017-05-18T05:49:48.879Z,1009.83
2017-05-18T05:50:48.817Z,1009.8
2017-05-18T05:51:48.755Z,1009.86
2017-05-18T05:52:48.694Z,1009.79
2017-05-18T05:53:48.632Z,1009.83
2017-05-18T05:54:48.569Z,1009.84
2017-05-18T05:55:48.507Z,1009.8
2017-05-18T05:56:48.446Z,1009.82
2017-05-18T05:57:48.386Z,1009.82
2017-05-18T05:58:48.323Z,1009.8
2017-05-18T05:59:48.259Z,1009.8
2017-05-18T06:00:48.198Z,1009.79
2017-05-18T06:01:48.136Z,1009.77
2017-05-18T06:02:48.075Z,1009.82
2017-05-18T06:03:48.015Z,1009.79
2017-05-18T06:04:47.951Z,1009.83
2017-05-18T06:05:47.891Z,1009.76
2017-05-18T06:06:47.829Z,1009.8
2017-05-18T06:07:47.767Z,1009.78
2017-05-18T06:08:47.705Z,1009.79
2017-05-18T06:09:47.642Z,1009.83
2017-05-18T06:10:47.581Z,1009.78
2017-05-18T06:11:47.519Z,1009.75
2017-05-18T06:12:47.456Z,1009.75
2017-05-18T06:13:47.396Z,1009.75
2017-05-18T06:14:47.339Z,1009.74
2017-05-18T06:15:47.272Z,1009.73
2017-05-18T06:16:47.210Z,1009.72
2017-05-18T06:17:47.148Z,1009.75
2017-05-18T06:18:47.142Z,1009.73
2017-05-18T06:19:47.024Z,1009.72
2017-05-18T06:20:46.964Z,1009.71
2017-05-18T06:21:46.903Z,1009.67
2017-05-18T06:22:46.841Z,1009.68
2017-05-18T06:23:46.778Z,1009.69
2017-05-18T06:24:46.717Z,1009.66
2017-05-18T06:25:46.655Z,1009.67
2017-05-18T06:26:46.593Z,1009.7
2017-05-18T06:27:46.532Z,1009.67
2017-05-18T06:28:46.469Z,1009.67
2017-05-18T06:29:46.408Z,1009.67
2017-05-18T06:30:46.345Z,1009.64
2017-05-18T06:31:46.284Z,1009.66
2017-05-18T06:32:46.222Z,1009.65
2017-05-18T06:33:46.161Z,1009.65
2017-05-18T06:34:46.098Z,1009.6
2017-05-18T06:35:46.036Z,1009.62
2017-05-18T06:36:45.974Z,1009.61
2017-05-18T06:37:45.913Z,1009.59
2017-05-18T06:38:45.850Z,1009.59
2017-05-18T06:39:45.792Z,1009.56
2017-05-18T06:40:45.728Z,1009.55
2017-05-18T06:41:45.665Z,1009.58
2017-05-18T06:42:45.603Z,1009.56
2017-05-18T06:43:45.542Z,1009.57
2017-05-18T06:44:45.481Z,1009.55
2017-05-18T06:45:45.417Z,1009.54
2017-05-18T06:46:45.356Z,1009.52
2017-05-18T06:47:45.294Z,1009.54
2017-05-18T06:48:45.235Z,1009.53
2017-05-18T06:49:45.170Z,1009.5
2017-05-18T06:50:45.109Z,1009.51
2017-05-18T06:51:45.052Z,1009.53
2017-05-18T06:52:44.985Z,1009.52
2017-05-18T06:53:44.924Z,1009.53
2017-05-18T06:54:44.862Z,1009.56
2017-05-18T06:55:45.101Z,1009.57
2017-05-18T06:56:44.738Z,1009.54
2017-05-18T06:57:44.736Z,1009.55
2017-05-18T06:58:44.763Z,1009.55
2017-05-18T06:59:44.553Z,1009.51
2017-05-18T07:00:45.354Z,1009.55
2017-05-18T07:01:44.430Z,1009.54
2017-05-18T07:02:44.368Z,1009.52
2017-05-18T07:03:44.307Z,1009.52
2017-05-18T07:04:44.246Z,1009.56
2017-05-18T07:05:44.181Z,1009.53
2017-05-18T07:06:44.121Z,1009.53
2017-05-18T07:07:44.058Z,1009.53
2017-05-18T07:08:43.996Z,1009.54
2017-05-18T07:09:43.936Z,1009.52
2017-05-18T07:10:43.874Z,1009.5
2017-05-18T07:11:43.811Z,1009.5
2017-05-18T07:12:43.777Z,1009.53
2017-05-18T07:13:43.689Z,1009.52
2017-05-18T07:14:43.627Z,1009.51
2017-05-18T07:15:43.664Z,1009.43
2017-05-18T07:16:43.504Z,1009.45
2017-05-18T07:17:43.442Z,1009.45
2017-05-18T07:18:43.386Z,1009.44
2017-05-18T07:19:43.468Z,1009.4
2017-05-18T07:20:43.258Z,1009.4
2017-05-18T07:21:43.196Z,1009.42
2017-05-18T07:22:43.134Z,1009.47
2017-05-18T07:23:43.072Z,1009.41
2017-05-18T07:24:43.009Z,1009.42
2017-05-18T07:25:42.949Z,1009.33
2017-05-18T07:26:42.889Z,1009.39
2017-05-18T07:27:42.826Z,1009.41
2017-05-18T07:28:42.766Z,1009.33
2017-05-18T07:29:42.702Z,1009.37
2017-05-18T07:30:42.640Z,1009.38
2017-05-18T07:31:42.579Z,1009.37
2017-05-18T07:32:42.518Z,1009.33
2017-05-18T07:33:42.479Z,1009.33
2017-05-18T07:34:42.397Z,1009.36
2017-05-18T07:35:42.334Z,1009.37
2017-05-18T07:36:42.272Z,1009.37
2017-05-18T07:37:42.211Z,1009.34
2017-05-18T07:38:42.151Z,1009.34
2017-05-18T07:39:42.087Z,1009.32
2017-05-18T07:40:42.025Z,1009.33
2017-05-18T07:41:41.965Z,1009.32
2017-05-18T07:42:41.904Z,1009.32
2017-05-18T07:43:41.844Z,1009.29
2017-05-18T07:44:41.781Z,1009.3
2017-05-18T07:45:42.021Z,1009.23
2017-05-18T07:46:41.659Z,1009.25
2017-05-18T07:47:41.596Z,1009.29
2017-05-18T07:48:41.535Z,1009.24
2017-05-18T07:49:41.474Z,1009.23
2017-05-18T07:50:41.422Z,1009.19
2017-05-18T07:51:41.352Z,1009.22
2017-05-18T07:52:41.292Z,1009.19
2017-05-18T07:53:41.248Z,1009.24
2017-05-18T07:54:41.168Z,1009.23
2017-05-18T07:55:41.107Z,1009.21
2017-05-18T07:56:41.049Z,1009.21
2017-05-18T07:57:40.985Z,1009.2
2017-05-18T07:58:40.923Z,1009.16
2017-05-18T07:59:40.911Z,1009.18
2017-05-18T08:00:40.805Z,1009.12
2017-05-18T08:01:40.740Z,1009.12
2017-05-18T08:02:40.678Z,1009.09
2017-05-18T08:03:40.618Z,1009.16
2017-05-18T08:04:40.557Z,1009.13
2017-05-18T08:05:40.509Z,1009.13
2017-05-18T08:06:40.434Z,1009.13
2017-05-18T08:07:40.371Z,1009.07
2017-05-18T08:08:40.311Z,1009.09
2017-05-18T08:09:40.250Z,1009.13
2017-05-18T08:10:40.188Z,1009.11
2017-05-18T08:11:40.126Z,1009.09
2017-05-18T08:12:40.067Z,1009.07
2017-05-18T08:13:40.004Z,1009.06
2017-05-18T08:14:39.949Z,1009.05
2017-05-18T08:15:39.884Z,1009.09
2017-05-18T08:16:39.821Z,1009.05
2017-05-18T08:17:39.761Z,1009.04
2017-05-18T08:18:39.700Z,1009.11
2017-05-18T08:19:39.639Z,1009.08
2017-05-18T08:20:39.576Z,1009.05
2017-05-18T08:21:39.516Z,1009.07
2017-05-18T08:22:39.455Z,1009.05
2017-05-18T08:23:39.422Z,1009.07
2017-05-18T08:24:39.333Z,1009.09
2017-05-18T08:25:39.272Z,1009.12
2017-05-18T08:26:39.212Z,1009.09
2017-05-18T08:27:39.149Z,1009.04
2017-05-18T08:28:39.088Z,1009.12
2017-05-18T08:29:39.029Z,1009.11
2017-05-18T08:30:39.015Z,1009.11
2017-05-18T08:31:38.925Z,1009.07
2017-05-18T08:32:38.844Z,1009.05
2017-05-18T08:33:38.784Z,1009.01
2017-05-18T08:34:38.724Z,1009.01
2017-05-18T08:35:38.661Z,1009.03
2017-05-18T08:36:38.601Z,1009.02
2017-05-18T08:37:38.540Z,1009
2017-05-18T08:38:38.477Z,1009.01
2017-05-18T08:39:38.417Z,1008.97
2017-05-18T08:40:38.357Z,1009.01
2017-05-18T08:41:38.296Z,1008.96
2017-05-18T08:42:38.234Z,1008.97
2017-05-18T08:43:38.174Z,1009.01
2017-05-18T08:44:38.115Z,1008.95
2017-05-18T08:45:38.056Z,1008.95
2017-05-18T08:46:37.990Z,1008.91
2017-05-18T08:47:37.929Z,1008.98
2017-05-18T08:48:37.869Z,1009
2017-05-18T08:49:37.807Z,1008.94
2017-05-18T08:50:37.744Z,1008.89
2017-05-18T08:51:37.685Z,1008.96
2017-05-18T08:52:37.626Z,1008.89
2017-05-18T08:53:37.610Z,1008.89
2017-05-18T08:54:37.575Z,1008.96
2017-05-18T08:55:37.563Z,1008.92
2017-05-18T08:56:37.384Z,1008.88
2017-05-18T08:57:37.347Z,1008.88
2017-05-18T08:58:37.259Z,1008.88
2017-05-18T08:59:37.199Z,1008.86
2017-05-18T09:00:37.136Z,1008.86
2017-05-18T09:01:37.075Z,1008.85
2017-05-18T09:02:37.015Z,1008.92
2017-05-18T09:03:36.954Z,1008.85
2017-05-18T09:04:36.893Z,1008.84
2017-05-18T09:05:36.832Z,1008.87
2017-05-18T09:06:36.771Z,1008.84
2017-05-18T09:07:36.711Z,1008.82
2017-05-18T09:08:36.649Z,1008.85
2017-05-18T09:09:36.590Z,1008.87
2017-05-18T09:10:36.530Z,1008.82
2017-05-18T09:11:36.467Z,1008.81
2017-05-18T09:12:36.407Z,1008.87
2017-05-18T09:13:36.347Z,1008.79
2017-05-18T09:14:36.292Z,1008.8
2017-05-18T09:15:36.474Z,1008.79
2017-05-18T09:16:36.163Z,1008.75
2017-05-18T09:17:36.103Z,1008.76
2017-05-18T09:18:36.112Z,1008.76
2017-05-18T09:19:35.988Z,1008.75
2017-05-18T09:20:35.920Z,1008.8
2017-05-18T09:21:35.860Z,1008.78
2017-05-18T09:22:35.796Z,1008.77
2017-05-18T09:23:35.737Z,1008.75
2017-05-18T09:24:35.676Z,1008.74
2017-05-18T09:25:35.617Z,1008.75
2017-05-18T09:26:35.555Z,1008.77
2017-05-18T09:27:35.501Z,1008.76
2017-05-18T09:28:35.433Z,1008.74
2017-05-18T09:29:35.389Z,1008.77
2017-05-18T09:30:35.313Z,1008.77
2017-05-18T09:31:35.252Z,1008.73
2017-05-18T09:32:35.197Z,1008.76
2017-05-18T09:33:35.131Z,1008.74
2017-05-18T09:34:35.071Z,1008.67
2017-05-18T09:35:35.259Z,1008.73
2017-05-18T09:36:34.949Z,1008.71
2017-05-18T09:37:34.888Z,1008.61
2017-05-18T09:38:34.828Z,1008.63
2017-05-18T09:39:34.766Z,1008.71
2017-05-18T09:40:34.705Z,1008.75
2017-05-18T09:41:34.645Z,1008.64
2017-05-18T09:42:34.585Z,1008.63
2017-05-18T09:43:34.524Z,1008.62
2017-05-18T09:44:34.463Z,1008.65
2017-05-18T09:45:34.402Z,1008.59
2017-05-18T09:46:34.342Z,1008.62
2017-05-18T09:47:34.281Z,1008.62
2017-05-18T09:48:34.220Z,1008.6
2017-05-18T09:49:34.160Z,1008.61
2017-05-18T09:50:34.115Z,1008.57
2017-05-18T09:51:34.038Z,1008.56
2017-05-18T09:52:33.992Z,1008.66
2017-05-18T09:53:33.918Z,1008.61
2017-05-18T09:54:33.857Z,1008.57
2017-05-18T09:55:33.796Z,1008.6
2017-05-18T09:56:33.734Z,1008.58
2017-05-18T09:57:33.675Z,1008.6
2017-05-18T09:58:33.614Z,1008.55
2017-05-18T09:59:33.553Z,1008.66
2017-05-18T10:00:33.493Z,1008.61
2017-05-18T10:01:33.434Z,1008.59
2017-05-18T10:02:33.372Z,1008.57
2017-05-18T10:03:33.311Z,1008.55
2017-05-18T10:04:33.305Z,1008.53
2017-05-18T10:05:33.191Z,1008.57
2017-05-18T10:06:33.128Z,1008.52
2017-05-18T10:07:33.068Z,1008.52
2017-05-18T10:08:33.009Z,1008.52
2017-05-18T10:09:32.949Z,1008.46
2017-05-18T10:10:32.887Z,1008.49
2017-05-18T10:11:32.827Z,1008.46
2017-05-18T10:12:32.766Z,1008.46
2017-05-18T10:13:32.708Z,1008.49
2017-05-18T10:14:32.645Z,1008.44
2017-05-18T10:15:32.586Z,1008.46
2017-05-18T10:16:32.545Z,1008.45
2017-05-18T10:17:32.466Z,1008.43
2017-05-18T10:18:32.404Z,1008.51
2017-05-18T10:19:32.344Z,1008.49
2017-05-18T10:20:32.284Z,1008.49
2017-05-18T10:21:32.223Z,1008.51
2017-05-18T10:22:32.162Z,1008.49
2017-05-18T10:23:32.103Z,1008.5
2017-05-18T10:24:32.040Z,1008.48
2017-05-18T10:25:31.982Z,1008.42
2017-05-18T10:26:31.922Z,1008.39
2017-05-18T10:27:31.862Z,1008.42
2017-05-18T10:28:31.800Z,1008.39
2017-05-18T10:29:31.740Z,1008.33
2017-05-18T10:30:31.689Z,1008.38
2017-05-18T10:31:31.620Z,1008.38
2017-05-18T10:32:31.559Z,1008.37
2017-05-18T10:33:31.499Z,1008.37
2017-05-18T10:34:31.438Z,1008.32
2017-05-18T10:35:31.376Z,1008.38
2017-05-18T10:36:31.317Z,1008.33
2017-05-18T10:37:31.257Z,1008.36
2017-05-18T10:38:31.197Z,1008.4
2017-05-18T10:39:31.136Z,1008.33
2017-05-18T10:40:31.076Z,1008.32
2017-05-18T10:41:31.015Z,1008.29
2017-05-18T10:42:30.955Z,1008.3
2017-05-18T10:43:30.894Z,1008.31
2017-05-18T10:44:30.833Z,1008.31
2017-05-18T10:45:30.773Z,1008.26
2017-05-18T10:46:30.710Z,1008.23
2017-05-18T10:47:30.651Z,1008.27
2017-05-18T10:48:30.594Z,1008.26
2017-05-18T10:49:30.554Z,1008.26
2017-05-18T10:50:30.471Z,1008.29
2017-05-18T10:51:30.411Z,1008.29
2017-05-18T10:52:30.350Z,1008.26
2017-05-18T10:53:30.291Z,1008.25
2017-05-18T10:54:30.229Z,1008.26
2017-05-18T10:55:30.170Z,1008.25
2017-05-18T10:56:30.109Z,1008.19
2017-05-18T10:57:30.047Z,1008.22
2017-05-18T10:58:29.988Z,1008.2
2017-05-18T10:59:29.929Z,1008.21
2017-05-18T11:00:30.166Z,1008.1
2017-05-18T11:01:29.805Z,1008.14
2017-05-18T11:02:29.745Z,1008.19
2017-05-18T11:03:29.688Z,1008.22
2017-05-18T11:04:29.625Z,1008.2
2017-05-18T11:05:29.665Z,1008.18
2017-05-18T11:06:29.504Z,1008.18
2017-05-18T11:07:29.444Z,1008.2
2017-05-18T11:08:29.406Z,1008.17
2017-05-18T11:09:29.325Z,1008.17
2017-05-18T11:10:29.613Z,1008.15
2017-05-18T11:11:29.202Z,1008.16
2017-05-18T11:12:29.141Z,1008.2
2017-05-18T11:13:29.080Z,1008.19
2017-05-18T11:14:29.021Z,1008.17
2017-05-18T11:15:29.324Z,1008.11
2017-05-18T11:16:28.898Z,1008.13
2017-05-18T11:17:28.839Z,1008.13
2017-05-18T11:18:28.776Z,1008.13
2017-05-18T11:19:28.733Z,1008.1
2017-05-18T11:20:28.657Z,1008.08
2017-05-18T11:21:28.597Z,1008.06
2017-05-18T11:22:28.537Z,1008.03
2017-05-18T11:23:28.479Z,1008.04
2017-05-18T11:24:28.415Z,1008
2017-05-18T11:25:28.354Z,1008.06
2017-05-18T11:26:28.297Z,1008.01
2017-05-18T11:27:28.237Z,1008
2017-05-18T11:28:28.172Z,1007.97
2017-05-18T11:29:28.113Z,1007.95
2017-05-18T11:30:28.054Z,1007.97
2017-05-18T11:31:28.006Z,1007.95
2017-05-18T11:32:27.928Z,1007.94
2017-05-18T11:33:27.870Z,1007.96
2017-05-18T11:34:27.810Z,1007.94
2017-05-18T11:35:28.004Z,1007.93
2017-05-18T11:36:27.688Z,1007.91
2017-05-18T11:37:27.626Z,1007.9
2017-05-18T11:38:27.566Z,1007.88
2017-05-18T11:39:27.530Z,1007.83
2017-05-18T11:40:27.445Z,1007.83
2017-05-18T11:41:27.462Z,1007.85
2017-05-18T11:42:27.324Z,1007.84
2017-05-18T11:43:27.263Z,1007.83
2017-05-18T11:44:27.203Z,1007.78
2017-05-18T11:45:27.141Z,1007.78
2017-05-18T11:46:27.079Z,1007.79
2017-05-18T11:47:27.020Z,1007.79
2017-05-18T11:48:26.961Z,1007.78
2017-05-18T11:49:26.899Z,1007.75
2017-05-18T11:50:26.838Z,1007.74
2017-05-18T11:51:26.816Z,1007.79
2017-05-18T11:52:26.716Z,1007.76
2017-05-18T11:53:26.656Z,1007.76
2017-05-18T11:54:26.595Z,1007.75
2017-05-18T11:55:26.535Z,1007.74
2017-05-18T11:56:26.473Z,1007.72
2017-05-18T11:57:26.412Z,1007.8
2017-05-18T11:58:26.354Z,1007.71
2017-05-18T11:59:26.298Z,1007.71
2017-05-18T12:00:26.230Z,1007.72
2017-05-18T12:01:26.171Z,1007.73
2017-05-18T12:02:26.112Z,1007.71
2017-05-18T12:03:26.048Z,1007.69
2017-05-18T12:04:25.989Z,1007.72
2017-05-18T12:05:25.929Z,1007.75
2017-05-18T12:06:25.867Z,1007.71
2017-05-18T12:07:25.806Z,1007.7
2017-05-18T12:08:25.746Z,1007.66